Time;durP1;ratioP1;P1;durP2;ratioP2;P2;SDS_P1;SDS_P2;PMS_P1;PMS_P2;Temp;Humidity;BMP_temperature;BMP_pressure;BME280_temperature;BME280_humidity;BME280_pressure;Samples;Min_cycle;Max_cycle;Signal;HPM_P1;HPM_P2
2023/03/13 00:01:32;;;;;;;4.18;1.88;;;;;;;;;;5038728;28;20029;-78
2023/03/13 00:03:58;;;;;;;4.68;1.80;;;;;;;;;;5032731;28;20198;-78
2023/03/13 00:06:25;;;;;;;4.90;1.73;;;;;;;;;;5037927;28;20033;-78
2023/03/13 00:08:53;;;;;;;6.05;1.73;;;;;;;;;;5036450;28;20063;-77
2023/03/13 00:11:19;;;;;;;5.50;1.83;;;;;;;;;;5039163;28;20182;-79
2023/03/13 00:13:45;;;;;;;3.42;2.10;;;;;;;;;;5039436;28;20061;-78
2023/03/13 00:16:13;;;;;;;1.98;1.65;;;;;;;;;;5039520;28;20320;-78
2023/03/13 00:18:41;;;;;;;2.80;1.05;;;;;;;;;;5037523;28;20032;-78
2023/03/13 00:21:08;;;;;;;4.40;2.10;;;;;;;;;;5037917;28;20028;-77
2023/03/13 00:23:35;;;;;;;3.47;1.80;;;;;;;;;;5038970;28;20088;-78
2023/03/13 00:26:02;;;;;;;3.95;2.20;;;;;;;;;;5038169;28;20103;-79
2023/03/13 00:28:29;;;;;;;1.70;1.60;;;;;;;;;;5037419;28;20050;-79
2023/03/13 00:31:01;;;;;;;9.10;2.47;;;;;;;;;;5037038;28;20047;-78
2023/03/13 00:33:30;;;;;;;3.72;2.10;;;;;;;;;;5037616;28;20083;-77
2023/03/13 00:36:04;;;;;;;5.43;2.30;;;;;;;;;;5036629;28;20025;-77
2023/03/13 00:38:30;;;;;;;3.78;2.53;;;;;;;;;;5038113;28;20025;-79
2023/03/13 00:41:03;;;;;;;3.58;1.88;;;;;;;;;;5038334;28;20029;-79
2023/03/13 00:43:29;;;;;;;3.65;2.30;;;;;;;;;;5038218;28;20473;-78
2023/03/13 00:45:55;;;;;;;5.18;2.20;;;;;;;;;;5038291;28;20055;-80
2023/03/13 00:48:22;;;;;;;4.20;2.22;;;;;;;;;;5037679;28;20121;-78
2023/03/13 00:50:48;;;;;;;3.25;1.58;;;;;;;;;;5038368;28;20136;-78
2023/03/13 00:53:14;;;;;;;5.13;1.83;;;;;;;;;;5035720;28;20102;-78
2023/03/13 00:55:53;;;;;;;6.63;2.40;;;;;;;;;;5038842;28;20022;-78
2023/03/13 00:58:19;;;;;;;3.22;1.30;;;;;;;;;;5036229;28;20030;-79
2023/03/13 01:00:45;;;;;;;3.22;1.75;;;;;;;;;;5037929;28;20030;-79
2023/03/13 01:03:15;;;;;;;5.05;3.28;;;;;;;;;;5037034;28;20017;-79
2023/03/13 01:05:44;;;;;;;4.10;1.73;;;;;;;;;;5037604;28;20026;-78
2023/03/13 01:08:10;;;;;;;1.98;1.38;;;;;;;;;;5036477;28;20270;-78
2023/03/13 01:10:36;;;;;;;1.73;1.20;;;;;;;;;;5036720;28;20025;-78
2023/03/13 01:13:05;;;;;;;3.50;1.80;;;;;;;;;;5036419;28;20037;-77
2023/03/13 01:15:33;;;;;;;;;;;;;;;;;;5038796;28;20022;-78
2023/03/13 01:18:02;;;;;;;5.03;1.25;;;;;;;;;;5039711;28;19901;-78
2023/03/13 01:20:29;;;;;;;4.85;1.85;;;;;;;;;;5041697;28;20026;-78
2023/03/13 01:22:55;;;;;;;3.33;1.83;;;;;;;;;;5039628;28;20029;-78
2023/03/13 01:25:21;;;;;;;4.18;1.80;;;;;;;;;;5041205;28;20128;-78
2023/03/13 01:27:47;;;;;;;2.47;1.92;;;;;;;;;;5039435;28;20057;-79
2023/03/13 01:30:14;;;;;;;5.43;1.60;;;;;;;;;;5040198;28;20029;-76
2023/03/13 01:32:42;;;;;;;4.13;1.13;;;;;;;;;;5040119;28;20063;-77
2023/03/13 01:35:11;;;;;;;9.88;2.42;;;;;;;;;;5041596;28;20301;-77
2023/03/13 01:37:37;;;;;;;5.30;1.57;;;;;;;;;;5040802;28;20055;-76
2023/03/13 01:40:03;;;;;;;2.75;1.48;;;;;;;;;;5042216;28;20420;-77
2023/03/13 01:42:29;;;;;;;2.65;1.67;;;;;;;;;;5039996;28;20026;-77
2023/03/13 01:44:56;;;;;;;3.25;1.58;;;;;;;;;;5040514;28;20029;-77
2023/03/13 01:47:24;;;;;;;1.45;1.15;;;;;;;;;;5038994;28;20347;-77
2023/03/13 01:49:53;;;;;;;5.05;1.83;;;;;;;;;;5040574;28;20327;-78
2023/03/13 01:52:26;;;;;;;2.85;2.13;;;;;;;;;;5039995;28;20158;-76
2023/03/13 01:55:10;;;;;;;6.38;1.30;;;;;;;;;;5039571;28;20022;-78
2023/03/13 01:57:40;;;;;;;2.83;1.77;;;;;;;;;;5040710;28;20036;-79
2023/03/13 02:00:15;;;;;;;4.70;1.55;;;;;;;;;;5040539;28;20222;-79
2023/03/13 02:02:45;;;;;;;5.78;2.33;;;;;;;;;;5040317;28;20348;-77
2023/03/13 02:05:13;;;;;;;4.75;1.10;;;;;;;;;;5040573;28;20025;-77
2023/03/13 02:07:47;;;;;;;4.60;1.40;;;;;;;;;;5041090;28;20040;-77
2023/03/13 02:10:15;;;;;;;5.40;1.65;;;;;;;;;;5040845;28;20025;-75
2023/03/13 02:12:41;;;;;;;2.53;1.52;;;;;;;;;;5040048;28;20287;-78
2023/03/13 02:15:09;;;;;;;4.57;1.52;;;;;;;;;;5038797;28;20426;-78
2023/03/13 02:17:38;;;;;;;2.38;1.35;;;;;;;;;;5039584;28;20068;-78
2023/03/13 02:20:04;;;;;;;4.05;1.75;;;;;;;;;;5040459;28;20033;-78
2023/03/13 02:22:38;;;;;;;4.80;1.70;;;;;;;;;;5038608;28;20021;-77
2023/03/13 02:25:13;;;;;;;1.45;1.35;;;;;;;;;;5039991;28;20026;-80
2023/03/13 02:27:39;;;;;;;2.38;1.05;;;;;;;;;;5039753;28;20109;-79
2023/03/13 02:30:06;;;;;;;2.10;1.45;;;;;;;;;;5039008;28;20033;-79
2023/03/13 02:32:32;;;;;;;3.05;1.85;;;;;;;;;;5039645;28;20136;-79
2023/03/13 02:35:02;;;;;;;4.30;1.98;;;;;;;;;;5040314;28;20071;-78
2023/03/13 02:37:29;;;;;;;2.63;1.88;;;;;;;;;;5039675;28;20025;-78
2023/03/13 02:39:56;;;;;;;3.78;1.50;;;;;;;;;;5039746;28;20234;-79
2023/03/13 02:42:22;;;;;;;6.93;2.38;;;;;;;;;;5038349;28;20018;-79
2023/03/13 02:44:51;;;;;;;5.78;1.20;;;;;;;;;;5038288;28;20330;-79
2023/03/13 02:47:21;;;;;;;1.98;1.08;;;;;;;;;;5038253;28;20171;-79
2023/03/13 02:49:52;;;;;;;2.35;1.20;;;;;;;;;;5038411;28;20056;-79
2023/03/13 02:52:26;;;;;;;2.17;1.00;;;;;;;;;;5038596;28;20153;-79
2023/03/13 02:54:58;;;;;;;1.70;1.55;;;;;;;;;;5038594;28;20057;-79
2023/03/13 02:57:24;;;;;;;2.95;0.82;;;;;;;;;;5039775;28;20298;-78
2023/03/13 02:59:50;;;;;;;1.80;1.13;;;;;;;;;;5040169;28;20030;-77
2023/03/13 03:02:18;;;;;;;1.42;1.25;;;;;;;;;;5039352;28;20017;-77
2023/03/13 03:04:44;;;;;;;2.50;1.13;;;;;;;;;;5039510;28;20037;-77
2023/03/13 03:07:10;;;;;;;3.63;1.40;;;;;;;;;;5038048;28;20025;-78
2023/03/13 03:09:36;;;;;;;1.13;0.93;;;;;;;;;;5037633;28;20021;-77
2023/03/13 03:12:02;;;;;;;1.45;1.35;;;;;;;;;;5037490;28;20084;-76
2023/03/13 03:14:28;;;;;;;2.25;0.82;;;;;;;;;;5037785;28;20281;-76
2023/03/13 03:16:57;;;;;;;2.70;1.17;;;;;;;;;;5037258;28;20340;-77
2023/03/13 03:19:23;;;;;;;1.63;1.42;;;;;;;;;;5037682;28;20033;-78
2023/03/13 03:21:49;;;;;;;1.95;1.15;;;;;;;;;;5038515;28;20415;-78
2023/03/13 03:24:20;;;;;;;1.23;0.73;;;;;;;;;;5039313;28;20033;-78
2023/03/13 03:26:49;;;;;;;6.03;1.30;;;;;;;;;;5040792;28;20391;-80
2023/03/13 03:29:15;;;;;;;2.28;1.65;;;;;;;;;;5056871;28;20189;-79
2023/03/13 03:31:41;;;;;;;1.52;1.05;;;;;;;;;;5059506;28;20021;-77
2023/03/13 03:34:07;;;;;;;1.38;1.20;;;;;;;;;;5059957;28;20029;-77
2023/03/13 03:36:37;;;;;;;1.42;1.25;;;;;;;;;;5059394;28;20016;-77
2023/03/13 03:39:04;;;;;;;2.78;2.05;;;;;;;;;;5058841;28;20039;-77
2023/03/13 03:41:30;;;;;;;7.13;1.52;;;;;;;;;;5059033;28;20107;-77
2023/03/13 03:43:56;;;;;;;3.70;2.17;;;;;;;;;;5058949;28;20036;-77
2023/03/13 03:46:23;;;;;;;2.08;1.20;;;;;;;;;;5058199;28;20206;-78
2023/03/13 03:48:51;;;;;;;2.60;1.40;;;;;;;;;;5049305;28;20036;-78
2023/03/13 03:51:17;;;;;;;4.57;1.42;;;;;;;;;;5038363;28;20143;-78
2023/03/13 03:53:43;;;;;;;8.82;1.20;;;;;;;;;;5037907;28;20101;-80
2023/03/13 03:56:11;;;;;;;3.13;1.23;;;;;;;;;;5039038;28;20032;-79
2023/03/13 03:58:37;;;;;;;2.15;1.33;;;;;;;;;;5038250;28;20030;-78
2023/03/13 04:01:04;;;;;;;1.83;1.33;;;;;;;;;;5038252;28;20294;-78
2023/03/13 04:03:30;;;;;;;1.98;1.25;;;;;;;;;;5038770;28;20040;-78
2023/03/13 04:05:56;;;;;;;4.78;1.88;;;;;;;;;;5039394;28;20025;-78
2023/03/13 04:08:24;;;;;;;8.50;2.00;;;;;;;;;;5040027;28;20067;-79
2023/03/13 04:10:53;;;;;;;1.45;1.30;;;;;;;;;;5039268;28;20029;-77
2023/03/13 04:13:21;;;;;;;1.48;1.15;;;;;;;;;;5038657;28;20049;-78
2023/03/13 04:15:47;;;;;;;2.13;1.48;;;;;;;;;;5038722;28;20376;-78
2023/03/13 04:18:16;;;;;;;1.38;0.88;;;;;;;;;;5038834;28;20017;-78
2023/03/13 04:20:42;;;;;;;3.75;1.20;;;;;;;;;;5038266;28;20022;-78
2023/03/13 04:23:08;;;;;;;5.07;1.35;;;;;;;;;;5037677;28;20244;-78
2023/03/13 04:25:34;;;;;;;2.17;1.30;;;;;;;;;;5038329;28;20337;-78
2023/03/13 04:28:01;;;;;;;1.27;1.05;;;;;;;;;;5037587;28;20049;-77
2023/03/13 04:30:27;;;;;;;1.02;0.75;;;;;;;;;;5038077;28;20084;-75
2023/03/13 04:32:53;;;;;;;2.17;1.38;;;;;;;;;;5037738;28;20502;-77
2023/03/13 04:35:19;;;;;;;3.55;1.20;;;;;;;;;;5037841;28;20409;-77
2023/03/13 04:37:45;;;;;;;2.15;1.00;;;;;;;;;;5038265;28;20129;-77
2023/03/13 04:40:13;;;;;;;2.40;0.70;;;;;;;;;;5038510;28;20025;-77
2023/03/13 04:42:43;;;;;;;1.70;0.90;;;;;;;;;;5037787;28;20021;-77
2023/03/13 04:45:10;;;;;;;1.85;0.95;;;;;;;;;;5038443;28;20029;-77
2023/03/13 04:47:39;;;;;;;1.45;1.20;;;;;;;;;;5037639;28;20037;-77
2023/03/13 04:50:05;;;;;;;5.03;1.35;;;;;;;;;;5039119;28;20165;-77
2023/03/13 04:52:31;;;;;;;2.22;1.00;;;;;;;;;;5039246;28;20026;-77
2023/03/13 04:54:59;;;;;;;1.40;1.00;;;;;;;;;;5035956;28;20029;-77
2023/03/13 04:57:30;;;;;;;2.28;1.35;;;;;;;;;;5029574;28;20025;-77
2023/03/13 04:59:56;;;;;;;6.75;1.30;;;;;;;;;;5030908;28;20096;-77
2023/03/13 05:02:24;;;;;;;1.27;0.80;;;;;;;;;;5030251;28;20488;-77
2023/03/13 05:04:50;;;;;;;2.47;0.75;;;;;;;;;;5028392;28;20453;-77
2023/03/13 05:07:19;;;;;;;2.65;1.33;;;;;;;;;;5029342;28;20057;-77
2023/03/13 05:09:45;;;;;;;3.70;1.92;;;;;;;;;;5028494;28;20029;-78
2023/03/13 05:12:11;;;;;;;1.27;0.68;;;;;;;;;;5028540;28;20181;-78
2023/03/13 05:14:37;;;;;;;0.70;0.57;;;;;;;;;;5028473;28;20124;-78
2023/03/13 05:17:03;;;;;;;7.13;1.88;;;;;;;;;;5028260;28;20020;-78
2023/03/13 05:19:29;;;;;;;0.93;0.80;;;;;;;;;;5028668;28;20048;-77
2023/03/13 05:21:55;;;;;;;1.00;0.95;;;;;;;;;;5028055;28;20021;-77
2023/03/13 05:24:23;;;;;;;2.28;1.00;;;;;;;;;;5029494;28;20055;-78
2023/03/13 05:26:49;;;;;;;1.13;1.10;;;;;;;;;;5029348;28;20029;-77
2023/03/13 05:29:15;;;;;;;2.75;1.85;;;;;;;;;;5029569;28;20045;-77
2023/03/13 05:31:41;;;;;;;2.97;1.40;;;;;;;;;;5028117;28;20048;-77
2023/03/13 05:34:07;;;;;;;10.23;3.10;;;;;;;;;;5027798;28;20048;-77
2023/03/13 05:36:36;;;;;;;9.00;3.08;;;;;;;;;;5028136;28;20033;-78
2023/03/13 05:39:07;;;;;;;9.20;5.00;;;;;;;;;;5029363;28;20145;-77
2023/03/13 05:41:33;;;;;;;5.72;2.33;;;;;;;;;;5029752;28;20068;-77
2023/03/13 05:43:59;;;;;;;5.68;2.33;;;;;;;;;;5028045;28;20464;-77
2023/03/13 05:46:25;;;;;;;4.55;2.45;;;;;;;;;;5029513;28;20026;-78
2023/03/13 05:48:54;;;;;;;3.15;1.70;;;;;;;;;;5028146;28;20029;-77
2023/03/13 05:51:20;;;;;;;5.30;1.63;;;;;;;;;;5030083;28;20477;-77
2023/03/13 05:53:46;;;;;;;4.47;1.52;;;;;;;;;;5029316;28;20033;-77
2023/03/13 05:56:12;;;;;;;0.57;0.43;;;;;;;;;;5028774;28;20501;-77
2023/03/13 05:58:38;;;;;;;1.48;1.38;;;;;;;;;;5027884;28;20124;-77
2023/03/13 06:01:08;;;;;;;2.28;0.90;;;;;;;;;;5029110;28;20330;-77
2023/03/13 06:03:34;;;;;;;3.30;1.88;;;;;;;;;;5029682;28;20029;-77
2023/03/13 06:06:00;;;;;;;0.63;0.40;;;;;;;;;;5032796;28;20021;-77
2023/03/13 06:08:26;;;;;;;2.20;1.13;;;;;;;;;;5032854;28;20025;-77
2023/03/13 06:10:52;;;;;;;3.80;2.33;;;;;;;;;;5032891;28;20021;-77
2023/03/13 06:13:19;;;;;;;1.38;1.00;;;;;;;;;;5031516;28;20037;-77
2023/03/13 06:15:57;;;;;;;0.52;0.50;;;;;;;;;;5033518;28;20028;-77
2023/03/13 06:18:23;;;;;;;1.42;0.57;;;;;;;;;;5032731;28;20571;-77
2023/03/13 06:20:52;;;;;;;6.40;1.63;;;;;;;;;;5032301;28;20087;-77
2023/03/13 06:23:21;;;;;;;0.60;0.60;;;;;;;;;;5032376;28;20268;-78
2023/03/13 06:25:48;;;;;;;1.70;1.05;;;;;;;;;;5031548;28;20073;-78
2023/03/13 06:28:14;;;;;;;1.83;1.15;;;;;;;;;;5032145;28;20575;-78
2023/03/13 06:30:41;;;;;;;24.65;10.57;;;;;;;;;;5032393;28;20120;-77
2023/03/13 06:33:07;;;;;;;11.90;7.00;;;;;;;;;;5032679;28;20042;-77
2023/03/13 06:35:33;;;;;;;7.70;3.00;;;;;;;;;;5030772;28;20026;-77
2023/03/13 06:37:59;;;;;;;6.43;3.15;;;;;;;;;;5033154;28;20032;-77
2023/03/13 06:40:27;;;;;;;7.30;3.13;;;;;;;;;;5030904;28;20044;-77
2023/03/13 06:42:53;;;;;;;4.72;2.22;;;;;;;;;;5026650;28;20030;-78
2023/03/13 06:45:19;;;;;;;3.28;2.00;;;;;;;;;;5024541;28;20048;-78
2023/03/13 06:47:45;;;;;;;3.13;2.40;;;;;;;;;;5035543;28;20321;-78
2023/03/13 06:50:15;;;;;;;2.70;1.58;;;;;;;;;;5022594;28;20033;-77
2023/03/13 06:52:42;;;;;;;3.95;1.98;;;;;;;;;;5010788;28;20041;-77
2023/03/13 06:55:10;;;;;;;2.63;2.03;;;;;;;;;;5010755;28;20402;-78
2023/03/13 06:57:36;;;;;;;3.85;2.10;;;;;;;;;;5010630;28;20061;-77
2023/03/13 07:00:04;;;;;;;3.22;1.73;;;;;;;;;;5012154;28;20508;-78
2023/03/13 07:02:35;;;;;;;6.25;2.97;;;;;;;;;;5010591;28;20430;-77
2023/03/13 07:05:04;;;;;;;7.47;3.95;;;;;;;;;;5010564;28;20145;-77
2023/03/13 07:07:31;;;;;;;10.88;4.18;;;;;;;;;;5011946;28;20033;-77
2023/03/13 07:09:58;;;;;;;6.63;4.20;;;;;;;;;;5011752;28;20508;-77
2023/03/13 07:12:24;;;;;;;14.32;5.55;;;;;;;;;;5011684;28;20030;-77
2023/03/13 07:14:50;;;;;;;12.38;6.05;;;;;;;;;;5011156;28;20037;-77
2023/03/13 07:17:16;;;;;;;10.52;6.80;;;;;;;;;;5011066;28;20026;-77
2023/03/13 07:19:42;;;;;;;9.77;4.30;;;;;;;;;;5010478;28;20034;-76
2023/03/13 07:22:10;;;;;;;5.43;1.92;;;;;;;;;;5010305;28;20026;-77
2023/03/13 07:24:36;;;;;;;6.85;2.25;;;;;;;;;;5011695;28;20045;-77
2023/03/13 07:27:02;;;;;;;6.03;3.15;;;;;;;;;;5011387;28;20101;-77
2023/03/13 07:29:28;;;;;;;4.55;2.90;;;;;;;;;;5011289;28;20092;-76
2023/03/13 07:31:54;;;;;;;4.88;2.97;;;;;;;;;;5011929;28;20076;-77
2023/03/13 07:34:23;;;;;;;2.67;2.47;;;;;;;;;;5011356;28;20084;-77
2023/03/13 07:36:49;;;;;;;7.35;3.78;;;;;;;;;;5011407;28;20049;-77
2023/03/13 07:39:15;;;;;;;9.00;5.03;;;;;;;;;;5009969;28;20525;-77
2023/03/13 07:41:41;;;;;;;6.93;4.00;;;;;;;;;;5010750;28;20069;-77
2023/03/13 07:44:10;;;;;;;3.65;1.90;;;;;;;;;;5011056;28;20022;-77
2023/03/13 07:46:36;;;;;;;8.87;4.07;;;;;;;;;;5011507;28;20510;-77
2023/03/13 07:49:02;;;;;;;18.23;7.60;;;;;;;;;;5009613;28;20030;-77
2023/03/13 07:51:28;;;;;;;10.73;6.32;;;;;;;;;;5010866;28;20495;-78
2023/03/13 07:53:54;;;;;;;11.63;5.05;;;;;;;;;;5010910;28;20204;-77
2023/03/13 07:56:21;;;;;;;6.03;2.65;;;;;;;;;;5009471;28;20088;-76
2023/03/13 07:58:48;;;;;;;10.93;5.47;;;;;;;;;;5010875;28;20108;-77
2023/03/13 08:01:15;;;;;;;14.38;6.35;;;;;;;;;;5011026;28;20073;-77
2023/03/13 08:03:41;;;;;;;12.82;5.68;;;;;;;;;;5010960;28;20026;-77
2023/03/13 08:06:09;;;;;;;10.32;5.18;;;;;;;;;;5010772;28;20026;-77
2023/03/13 08:08:44;;;;;;;16.83;6.07;;;;;;;;;;5010580;28;20063;-77
2023/03/13 08:11:14;;;;;;;12.15;5.05;;;;;;;;;;5009172;28;20026;-77
2023/03/13 08:13:41;;;;;;;9.90;3.90;;;;;;;;;;5010624;28;20034;-77
2023/03/13 08:16:08;;;;;;;5.53;3.67;;;;;;;;;;5010944;28;20022;-77
2023/03/13 08:18:35;;;;;;;6.80;4.05;;;;;;;;;;5010795;28;20120;-77
2023/03/13 08:21:08;;;;;;;4.85;2.08;;;;;;;;;;5010716;28;20060;-77
2023/03/13 08:23:34;;;;;;;4.43;1.83;;;;;;;;;;5010621;28;20035;-77
2023/03/13 08:26:04;;;;;;;5.07;2.83;;;;;;;;;;5010020;28;20022;-77
2023/03/13 08:28:32;;;;;;;6.97;2.75;;;;;;;;;;5009914;28;20077;-77
2023/03/13 08:30:58;;;;;;;0.90;0.60;;;;;;;;;;5010755;28;20104;-77
2023/03/13 08:33:24;;;;;;;6.72;2.40;;;;;;;;;;5010580;28;20032;-76
2023/03/13 08:35:53;;;;;;;1.75;1.63;;;;;;;;;;5012145;28;20061;-76
2023/03/13 08:38:21;;;;;;;2.88;1.20;;;;;;;;;;5010107;28;20053;-76
2023/03/13 08:40:47;;;;;;;1.70;1.60;;;;;;;;;;5014587;28;20033;-76
2023/03/13 08:43:13;;;;;;;1.40;1.30;;;;;;;;;;5011300;28;20271;-75
2023/03/13 08:45:39;;;;;;;6.07;2.08;;;;;;;;;;5008726;28;20777;-76
2023/03/13 08:48:05;;;;;;;9.60;3.88;;;;;;;;;;5008528;28;20364;-76
2023/03/13 08:50:31;;;;;;;8.27;3.03;;;;;;;;;;5008349;28;20391;-75
2023/03/13 08:53:04;;;;;;;5.70;1.85;;;;;;;;;;5008157;28;20021;-75
2023/03/13 08:55:37;;;;;;;2.05;1.20;;;;;;;;;;5008334;28;20073;-75
2023/03/13 08:58:03;;;;;;;3.90;1.67;;;;;;;;;;5008666;28;20018;-76
2023/03/13 09:00:29;;;;;;;4.68;1.73;;;;;;;;;;5008665;28;20390;-76
2023/03/13 09:02:58;;;;;;;4.53;1.45;;;;;;;;;;5008370;28;20034;-75
2023/03/13 09:05:24;;;;;;;1.20;1.10;;;;;;;;;;5008298;28;20030;-76
2023/03/13 09:07:53;;;;;;;3.35;1.70;;;;;;;;;;5008435;28;20037;-76
2023/03/13 09:10:19;;;;;;;5.88;2.30;;;;;;;;;;5008236;28;20034;-76
2023/03/13 09:12:47;;;;;;;7.15;1.92;;;;;;;;;;5008623;28;20084;-75
2023/03/13 09:15:13;;;;;;;3.05;1.10;;;;;;;;;;5008529;28;20025;-76
2023/03/13 09:17:39;;;;;;;3.80;1.63;;;;;;;;;;5008144;28;20378;-75
2023/03/13 09:20:06;;;;;;;3.95;1.58;;;;;;;;;;5008073;28;20525;-75
2023/03/13 09:22:32;;;;;;;2.58;1.08;;;;;;;;;;5008439;28;20022;-76
2023/03/13 09:24:58;;;;;;;1.90;0.57;;;;;;;;;;5009842;28;20414;-75
2023/03/13 09:27:24;;;;;;;1.33;0.20;;;;;;;;;;5008641;28;20030;-76
2023/03/13 09:29:53;;;;;;;0.50;0.50;;;;;;;;;;5009637;28;20058;-75
2023/03/13 09:32:19;;;;;;;0.30;0.30;;;;;;;;;;5008396;28;20022;-75
2023/03/13 09:34:46;;;;;;;0.20;0.20;;;;;;;;;;5009284;28;20034;-76
2023/03/13 09:37:12;;;;;;;0.10;0.10;;;;;;;;;;5009286;28;20026;-76
2023/03/13 09:39:38;;;;;;;0.55;0.30;;;;;;;;;;5011329;28;20034;-76
2023/03/13 09:42:10;;;;;;;0.00;0.00;;;;;;;;;;5012842;28;20025;-76
2023/03/13 09:44:39;;;;;;;1.85;0.10;;;;;;;;;;5011654;28;20053;-76
2023/03/13 09:47:12;;;;;;;0.35;0.20;;;;;;;;;;5011778;28;20026;-77
2023/03/13 09:49:42;;;;;;;0.30;0.30;;;;;;;;;;5013024;28;20029;-76
2023/03/13 09:52:11;;;;;;;0.30;0.20;;;;;;;;;;5012724;28;20029;-76
2023/03/13 09:54:47;;;;;;;0.10;0.10;;;;;;;;;;5012795;28;20045;-76
2023/03/13 09:57:19;;;;;;;0.30;0.30;;;;;;;;;;5011060;28;20022;-76
2023/03/13 09:59:53;;;;;;;0.10;0.10;;;;;;;;;;5012520;28;20608;-76
2023/03/13 10:02:32;;;;;;;0.30;0.30;;;;;;;;;;5011279;28;20029;-76
2023/03/13 10:05:07;;;;;;;0.10;0.00;;;;;;;;;;5012601;28;20040;-76
2023/03/13 10:07:33;;;;;;;1.00;0.55;;;;;;;;;;5011283;28;20111;-77
2023/03/13 10:10:00;;;;;;;0.35;0.10;;;;;;;;;;5011070;28;20252;-76
2023/03/13 10:12:31;;;;;;;0.10;0.10;;;;;;;;;;5012165;28;20530;-76
2023/03/13 10:15:07;;;;;;;0.50;0.10;;;;;;;;;;5010918;28;20088;-75
2023/03/13 10:17:38;;;;;;;0.43;0.13;;;;;;;;;;5011152;28;20034;-77
2023/03/13 10:20:10;;;;;;;0.20;0.10;;;;;;;;;;5012577;28;20026;-77
2023/03/13 10:22:36;;;;;;;1.55;0.55;;;;;;;;;;5012428;28;20030;-76
2023/03/13 10:25:11;;;;;;;0.00;0.00;;;;;;;;;;5012336;28;20025;-77
2023/03/13 10:27:44;;;;;;;3.20;0.38;;;;;;;;;;5012032;28;20037;-75
2023/03/13 10:30:22;;;;;;;0.20;0.20;;;;;;;;;;5012341;28;20475;-77
2023/03/13 10:32:48;;;;;;;0.08;0.08;;;;;;;;;;5010863;28;20414;-76
2023/03/13 10:35:24;;;;;;;0.30;0.13;;;;;;;;;;5010934;28;20109;-76
2023/03/13 10:37:59;;;;;;;0.10;0.10;;;;;;;;;;5012082;28;20053;-76
2023/03/13 10:40:26;;;;;;;1.15;0.15;;;;;;;;;;5010915;28;20026;-76
2023/03/13 10:42:54;;;;;;;0.20;0.20;;;;;;;;;;5011627;28;20026;-77
2023/03/13 10:45:21;;;;;;;0.00;0.00;;;;;;;;;;5012008;28;20022;-76
2023/03/13 10:47:54;;;;;;;0.68;0.20;;;;;;;;;;5011808;28;20037;-76
2023/03/13 10:50:23;;;;;;;0.10;0.10;;;;;;;;;;5011400;28;20018;-75
2023/03/13 10:52:49;;;;;;;0.22;0.22;;;;;;;;;;5010308;28;20025;-77
2023/03/13 10:55:19;;;;;;;1.45;0.38;;;;;;;;;;5011947;28;20088;-76
2023/03/13 10:57:58;;;;;;;0.10;0.10;;;;;;;;;;5010241;28;20402;-76
2023/03/13 11:00:34;;;;;;;0.10;0.10;;;;;;;;;;5011851;28;20135;-75
2023/03/13 11:03:02;;;;;;;0.03;0.03;;;;;;;;;;5011653;28;20046;-75
2023/03/13 11:05:30;;;;;;;1.27;0.50;;;;;;;;;;5011748;28;20153;-76
2023/03/13 11:07:56;;;;;;;0.50;0.50;;;;;;;;;;5011381;28;20018;-75
2023/03/13 11:10:24;;;;;;;3.45;0.70;;;;;;;;;;5011273;28;20030;-74
2023/03/13 11:12:52;;;;;;;0.60;0.60;;;;;;;;;;5009834;28;20036;-75
2023/03/13 11:15:21;;;;;;;2.40;0.77;;;;;;;;;;5009938;28;20049;-75
2023/03/13 11:17:55;;;;;;;5.05;0.80;;;;;;;;;;5011209;28;20036;-75
2023/03/13 11:20:22;;;;;;;0.60;0.60;;;;;;;;;;5011260;28;20548;-75
2023/03/13 11:22:50;;;;;;;0.73;0.68;;;;;;;;;;5011088;28;20137;-75
2023/03/13 11:25:22;;;;;;;2.22;1.33;;;;;;;;;;5011596;28;20442;-75
2023/03/13 11:27:58;;;;;;;1.35;0.75;;;;;;;;;;5010560;28;20558;-75
2023/03/13 11:30:53;;;;;;;1.42;0.90;;;;;;;;;;5011332;28;20036;-75
2023/03/13 11:33:19;;;;;;;1.83;1.08;;;;;;;;;;4974768;28;20039;-75
2023/03/13 11:36:21;;;;;;;0.52;0.40;;;;;;;;;;5011226;28;20056;-74
2023/03/13 11:39:05;;;;;;;4.95;0.55;;;;;;;;;;4969530;28;20634;-75
2023/03/13 11:41:40;;;;;;;0.95;0.50;;;;;;;;;;5007852;28;20056;-75
2023/03/13 11:44:25;;;;;;;0.65;0.55;;;;;;;;;;5010825;28;20029;-75
2023/03/13 11:46:54;;;;;;;1.98;0.50;;;;;;;;;;5010678;28;20087;-75
2023/03/13 11:49:20;;;;;;;1.20;0.80;;;;;;;;;;5009248;28;20387;-75
2023/03/13 11:51:56;;;;;;;3.05;0.77;;;;;;;;;;5008982;28;20033;-76
2023/03/13 11:54:41;;;;;;;0.82;0.82;;;;;;;;;;5010572;28;20119;-75
2023/03/13 11:57:11;;;;;;;1.05;0.63;;;;;;;;;;5010338;28;20103;-75
2023/03/13 11:59:37;;;;;;;0.75;0.70;;;;;;;;;;5009218;28;20022;-75
2023/03/13 12:02:15;;;;;;;1.65;0.65;;;;;;;;;;5008552;28;20026;-75
2023/03/13 12:04:54;;;;;;;1.65;0.40;;;;;;;;;;5010238;28;20026;-75
2023/03/13 12:07:27;;;;;;;2.50;1.30;;;;;;;;;;5010699;28;20026;-74
2023/03/13 12:09:59;;;;;;;0.68;0.60;;;;;;;;;;5009206;28;20034;-75
2023/03/13 12:12:51;;;;;;;0.50;0.50;;;;;;;;;;5010588;28;20060;-75
2023/03/13 12:15:20;;;;;;;2.33;0.65;;;;;;;;;;5008096;28;20060;-75
2023/03/13 12:17:50;;;;;;;0.68;0.68;;;;;;;;;;5010316;28;20281;-76
2023/03/13 12:20:28;;;;;;;0.60;0.60;;;;;;;;;;5008854;28;20026;-75
2023/03/13 12:23:25;;;;;;;7.60;0.47;;;;;;;;;;5008703;28;20038;-76
2023/03/13 12:26:04;;;;;;;1.30;0.50;;;;;;;;;;4996358;28;20033;-76
2023/03/13 12:28:30;;;;;;;1.85;0.77;;;;;;;;;;5009751;28;20124;-76
2023/03/13 12:31:15;;;;;;;1.23;1.10;;;;;;;;;;5009907;28;20021;-76
2023/03/13 12:33:46;;;;;;;1.30;0.70;;;;;;;;;;5009841;28;20032;-76
2023/03/13 12:36:28;;;;;;;0.75;0.30;;;;;;;;;;5008571;28;20556;-76
2023/03/13 12:39:05;;;;;;;0.40;0.30;;;;;;;;;;5009631;28;20021;-75
2023/03/13 12:41:34;;;;;;;2.83;0.73;;;;;;;;;;5009728;28;20517;-76
2023/03/13 12:44:00;;;;;;;1.30;0.40;;;;;;;;;;5008029;28;20030;-76
2023/03/13 12:46:29;;;;;;;0.22;0.22;;;;;;;;;;5009819;28;20485;-76
2023/03/13 12:48:55;;;;;;;;;;;;;;;;;;5008936;28;20131;-76
2023/03/13 12:51:24;;;;;;;0.22;0.22;;;;;;;;;;5008494;28;19938;-76
2023/03/13 12:53:53;;;;;;;2.92;0.30;;;;;;;;;;5009537;28;20022;-76
2023/03/13 12:56:19;;;;;;;;;;;;;;;;;;5009997;28;20450;-75
2023/03/13 12:59:01;;;;;;;0.38;0.30;;;;;;;;;;5009294;28;19999;-76
2023/03/13 13:01:35;;;;;;;0.85;0.50;;;;;;;;;;5009571;28;20219;-75
2023/03/13 13:04:05;;;;;;;0.55;0.30;;;;;;;;;;5008321;28;20045;-75
2023/03/13 13:06:50;;;;;;;3.20;0.88;;;;;;;;;;5009367;28;20022;-76
2023/03/13 13:09:22;;;;;;;1.58;0.68;;;;;;;;;;5017966;28;20026;-75
2023/03/13 13:11:50;;;;;;;0.85;0.30;;;;;;;;;;5028928;28;20092;-75
2023/03/13 13:14:16;;;;;;;0.47;0.30;;;;;;;;;;5029490;28;20037;-76
2023/03/13 13:16:48;;;;;;;0.88;0.30;;;;;;;;;;5033262;28;20044;-75
2023/03/13 13:19:37;;;;;;;0.65;0.50;;;;;;;;;;5032011;28;20271;-76
2023/03/13 13:22:22;;;;;;;0.20;0.20;;;;;;;;;;5021534;28;20375;-75
2023/03/13 13:24:49;;;;;;;0.55;0.50;;;;;;;;;;5033222;28;20044;-76
2023/03/13 13:27:33;;;;;;;0.30;0.30;;;;;;;;;;5031578;28;20017;-75
2023/03/13 13:30:02;;;;;;;0.52;0.32;;;;;;;;;;5032827;28;20575;-75
2023/03/13 13:32:30;;;;;;;0.30;0.30;;;;;;;;;;5033207;28;20113;-76
2023/03/13 13:35:18;;;;;;;1.58;1.10;;;;;;;;;;5033063;28;20040;-76
2023/03/13 13:37:44;;;;;;;0.95;0.52;;;;;;;;;;5032875;28;20099;-76
2023/03/13 13:40:16;;;;;;;0.43;0.20;;;;;;;;;;5032691;28;20096;-76
2023/03/13 13:42:50;;;;;;;0.52;0.20;;;;;;;;;;5032525;28;20029;-76
2023/03/13 13:45:16;;;;;;;3.90;1.00;;;;;;;;;;5032754;28;20029;-76
2023/03/13 13:47:46;;;;;;;1.75;0.60;;;;;;;;;;5031317;28;20121;-76
2023/03/13 13:50:38;;;;;;;2.17;0.45;;;;;;;;;;5031299;28;20026;-76
2023/03/13 13:53:28;;;;;;;0.40;0.28;;;;;;;;;;5027638;28;20033;-75
2023/03/13 13:55:57;;;;;;;4.32;0.50;;;;;;;;;;5031278;28;20043;-76
2023/03/13 13:58:24;;;;;;;0.52;0.28;;;;;;;;;;5030953;28;20377;-75
2023/03/13 14:00:53;;;;;;;2.15;0.35;;;;;;;;;;5032391;28;20029;-75
2023/03/13 14:03:21;;;;;;;0.38;0.20;;;;;;;;;;5030999;28;20022;-75
2023/03/13 14:05:49;;;;;;;0.68;0.60;;;;;;;;;;5032455;28;20034;-76
2023/03/13 14:08:28;;;;;;;0.50;0.47;;;;;;;;;;5032621;28;20080;-81
2023/03/13 14:11:06;;;;;;;0.50;0.30;;;;;;;;;;5030169;28;20083;-80
2023/03/13 14:13:32;;;;;;;0.25;0.25;;;;;;;;;;5050583;28;20229;-79
2023/03/13 14:16:10;;;;;;;0.93;0.35;;;;;;;;;;5039449;28;20107;-77
2023/03/13 14:18:42;;;;;;;0.75;0.20;;;;;;;;;;5027831;28;20382;-80
2023/03/13 14:21:12;;;;;;;0.30;0.30;;;;;;;;;;5029923;28;20034;-80
2023/03/13 14:23:43;;;;;;;0.20;0.20;;;;;;;;;;5027712;28;20513;-79
2023/03/13 14:26:19;;;;;;;0.30;0.25;;;;;;;;;;5028433;28;20156;-79
2023/03/13 14:28:50;;;;;;;0.10;0.10;;;;;;;;;;5026630;28;20050;-79
2023/03/13 14:31:32;;;;;;;0.20;0.20;;;;;;;;;;5028889;28;20525;-79
2023/03/13 14:34:00;;;;;;;1.35;0.20;;;;;;;;;;5029000;28;20029;-79
2023/03/13 14:36:26;;;;;;;1.08;0.30;;;;;;;;;;5028488;28;20053;-79
2023/03/13 14:38:56;;;;;;;0.45;0.43;;;;;;;;;;5028834;28;20029;-80
2023/03/13 14:41:28;;;;;;;0.10;0.10;;;;;;;;;;5028864;28;20029;-79
2023/03/13 14:43:55;;;;;;;0.10;0.10;;;;;;;;;;5028444;28;20025;-79
2023/03/13 14:46:31;;;;;;;0.38;0.20;;;;;;;;;;5028339;28;20025;-79
2023/03/13 14:49:05;;;;;;;0.40;0.40;;;;;;;;;;5028631;28;20025;-79
2023/03/13 14:51:31;;;;;;;0.10;0.10;;;;;;;;;;5027334;28;20048;-79
2023/03/13 14:54:01;;;;;;;0.20;0.20;;;;;;;;;;5028202;28;20033;-79
2023/03/13 14:56:32;;;;;;;0.17;0.10;;;;;;;;;;5028679;28;20028;-79